Time;durP1;ratioP1;P1;durP2;ratioP2;P2;SDS_P1;SDS_P2;PMS_P1;PMS_P2;Temp;Humidity;BMP_temperature;BMP_pressure;BME280_temperature;BME280_humidity;BME280_pressure;Samples;Min_cycle;Max_cycle;Signal;HPM_P1;HPM_P2
2023/10/12 00:01:59;;;;;;;4.80;2.58;;;;;;;;;;5115988;28;20388;-59
2023/10/12 00:04:27;;;;;;;3.58;2.13;;;;;;;;;;5115487;27;20056;-58
2023/10/12 00:06:54;;;;;;;6.55;2.45;;;;;;;;;;5114627;28;20055;-59
2023/10/12 00:09:25;;;;;;;5.10;2.50;;;;;;;;;;5115359;28;20052;-58
2023/10/12 00:11:57;;;;;;;9.70;2.70;;;;;;;;;;5115724;28;20052;-59
2023/10/12 00:14:27;;;;;;;5.32;2.28;;;;;;;;;;5114987;27;20369;-58
2023/10/12 00:16:55;;;;;;;6.28;2.20;;;;;;;;;;5114879;28;20047;-58
2023/10/12 00:19:23;;;;;;;5.68;3.17;;;;;;;;;;5115654;28;20063;-58
2023/10/12 00:21:50;;;;;;;10.18;3.08;;;;;;;;;;5114295;27;20062;-59
2023/10/12 00:24:18;;;;;;;6.10;2.70;;;;;;;;;;5115293;28;20317;-59
2023/10/12 00:26:45;;;;;;;6.25;2.67;;;;;;;;;;5115075;28;20051;-58
2023/10/12 00:29:12;;;;;;;4.03;2.50;;;;;;;;;;5115488;28;20044;-59
2023/10/12 00:31:42;;;;;;;4.85;2.20;;;;;;;;;;5115133;28;20388;-59
2023/10/12 00:34:10;;;;;;;4.75;2.38;;;;;;;;;;5114694;28;20059;-59
2023/10/12 00:36:40;;;;;;;4.85;2.58;;;;;;;;;;5121471;27;20051;-59
2023/10/12 00:39:09;;;;;;;5.68;2.50;;;;;;;;;;5135474;27;20066;-58
2023/10/12 00:41:37;;;;;;;5.18;2.50;;;;;;;;;;5135317;27;20066;-59
2023/10/12 00:44:09;;;;;;;4.45;2.35;;;;;;;;;;5135112;27;20051;-60
2023/10/12 00:46:48;;;;;;;4.60;2.53;;;;;;;;;;5122608;27;20424;-59
2023/10/12 00:49:17;;;;;;;4.40;3.05;;;;;;;;;;5115045;28;20051;-59
2023/10/12 00:51:50;;;;;;;7.32;2.80;;;;;;;;;;5113615;27;20538;-59
2023/10/12 00:54:26;;;;;;;7.43;2.45;;;;;;;;;;5114838;28;20052;-59
2023/10/12 00:56:57;;;;;;;5.00;2.78;;;;;;;;;;5114811;27;20059;-59
2023/10/12 00:59:25;;;;;;;4.50;2.42;;;;;;;;;;5114891;28;20052;-58
2023/10/12 01:01:53;;;;;;;14.15;3.15;;;;;;;;;;5114884;28;20051;-59
2023/10/12 01:04:22;;;;;;;7.47;3.28;;;;;;;;;;5114724;27;20055;-58
2023/10/12 01:06:51;;;;;;;4.72;2.13;;;;;;;;;;5113749;28;20070;-58
2023/10/12 01:09:20;;;;;;;4.97;2.45;;;;;;;;;;5114439;28;20067;-59
2023/10/12 01:11:57;;;;;;;9.25;3.58;;;;;;;;;;5114368;28;20492;-58
2023/10/12 01:14:26;;;;;;;5.53;2.80;;;;;;;;;;5114427;28;20048;-59
2023/10/12 01:16:57;;;;;;;;;;;;;;;;;;5114555;27;20055;-58
2023/10/12 01:19:30;;;;;;;6.40;3.75;;;;;;;;;;5114455;28;19927;-59
2023/10/12 01:22:12;;;;;;;7.70;3.05;;;;;;;;;;5113495;28;20055;-58
2023/10/12 01:24:44;;;;;;;4.70;2.50;;;;;;;;;;5114307;28;20052;-58
2023/10/12 01:27:13;;;;;;;4.60;2.38;;;;;;;;;;5113932;27;20062;-58
2023/10/12 01:29:41;;;;;;;5.10;2.65;;;;;;;;;;5114260;28;20448;-58
2023/10/12 01:34:52;;;;;;;6.22;3.17;;;;;;;;;;5112852;28;20051;-59
2023/10/12 01:37:24;;;;;;;6.15;2.92;;;;;;;;;;5113135;27;20428;-59
2023/10/12 01:39:57;;;;;;;5.35;2.85;;;;;;;;;;5114111;28;20396;-59
2023/10/12 01:42:26;;;;;;;5.50;2.72;;;;;;;;;;5113843;28;20053;-59
2023/10/12 01:44:53;;;;;;;9.38;3.55;;;;;;;;;;5113822;28;20480;-59
2023/10/12 01:47:20;;;;;;;5.93;2.65;;;;;;;;;;5112985;28;20051;-59
2023/10/12 01:49:49;;;;;;;5.47;2.63;;;;;;;;;;5113698;28;20060;-59
2023/10/12 01:52:16;;;;;;;4.25;2.50;;;;;;;;;;5101808;27;20048;-59
2023/10/12 01:54:48;;;;;;;5.25;2.90;;;;;;;;;;5093275;28;20058;-59
2023/10/12 01:57:18;;;;;;;5.47;3.20;;;;;;;;;;5109307;28;20059;-60
2023/10/12 01:59:45;;;;;;;5.88;2.53;;;;;;;;;;5113385;28;20048;-59
2023/10/12 02:02:15;;;;;;;4.82;3.15;;;;;;;;;;5113739;28;20048;-58
2023/10/12 02:04:43;;;;;;;6.25;3.33;;;;;;;;;;5113487;28;20058;-58
2023/10/12 02:07:10;;;;;;;4.80;2.50;;;;;;;;;;5108066;27;20047;-58
2023/10/12 02:09:37;;;;;;;5.30;2.80;;;;;;;;;;5113251;28;20523;-59
2023/10/12 02:12:12;;;;;;;5.88;3.33;;;;;;;;;;5113441;28;20056;-59
2023/10/12 02:14:40;;;;;;;4.63;2.67;;;;;;;;;;5113074;28;20052;-59
2023/10/12 02:17:10;;;;;;;5.78;2.97;;;;;;;;;;5112829;27;20055;-59
2023/10/12 02:19:41;;;;;;;7.32;3.25;;;;;;;;;;5113278;28;20052;-58
2023/10/12 02:22:18;;;;;;;8.50;2.75;;;;;;;;;;5123559;27;20486;-59
2023/10/12 02:24:57;;;;;;;5.13;2.80;;;;;;;;;;5133479;27;20058;-59
2023/10/12 02:27:24;;;;;;;;;;;;;;;;;;5116632;27;20051;-59
2023/10/12 02:29:56;;;;;;;6.43;3.58;;;;;;;;;;5113146;28;19926;-59
2023/10/12 02:32:24;;;;;;;5.60;3.00;;;;;;;;;;5113092;28;20063;-59
2023/10/12 02:34:56;;;;;;;6.40;3.58;;;;;;;;;;5112922;28;20052;-58
2023/10/12 02:37:24;;;;;;;7.03;3.85;;;;;;;;;;5125726;27;20058;-58
2023/10/12 02:39:53;;;;;;;7.37;3.10;;;;;;;;;;5133493;27;20043;-59
2023/10/12 02:42:22;;;;;;;;;;;;;;;;;;5133670;27;20411;-59
2023/10/12 02:45:09;;;;;;;6.07;3.63;;;;;;;;;;5133202;27;20283;-58
2023/10/12 02:47:41;;;;;;;7.97;3.22;;;;;;;;;;5114516;28;20058;-58
2023/10/12 02:50:20;;;;;;;5.72;3.13;;;;;;;;;;5113094;28;20404;-59
2023/10/12 02:52:49;;;;;;;6.57;3.53;;;;;;;;;;5126743;27;20096;-59
2023/10/12 02:55:25;;;;;;;9.60;3.80;;;;;;;;;;5133232;28;20051;-59
2023/10/12 02:57:56;;;;;;;5.25;3.47;;;;;;;;;;5112729;28;20507;-59
2023/10/12 03:00:24;;;;;;;4.53;3.10;;;;;;;;;;5112841;28;20052;-60
2023/10/12 03:02:53;;;;;;;6.45;4.00;;;;;;;;;;5112768;28;20052;-60
2023/10/12 03:05:32;;;;;;;6.15;3.38;;;;;;;;;;5112860;28;20048;-59
2023/10/12 03:08:06;;;;;;;6.10;3.77;;;;;;;;;;5114757;28;20055;-59
2023/10/12 03:10:33;;;;;;;9.07;3.90;;;;;;;;;;5112496;28;20488;-59
2023/10/12 03:13:04;;;;;;;6.53;3.88;;;;;;;;;;5112507;28;20051;-59
2023/10/12 03:15:41;;;;;;;6.70;3.70;;;;;;;;;;5112777;28;20047;-59
2023/10/12 03:18:11;;;;;;;6.65;3.83;;;;;;;;;;5112193;28;20534;-59
2023/10/12 03:20:38;;;;;;;10.18;4.03;;;;;;;;;;5109684;28;20051;-59
2023/10/12 03:23:15;;;;;;;8.15;3.40;;;;;;;;;;5112558;28;20051;-59
2023/10/12 03:25:46;;;;;;;6.78;3.70;;;;;;;;;;5109528;28;20067;-59
2023/10/12 03:28:29;;;;;;;7.25;3.72;;;;;;;;;;5091581;28;20408;-59
2023/10/12 03:31:11;;;;;;;8.15;4.45;;;;;;;;;;5100872;28;20059;-60
2023/10/12 03:33:39;;;;;;;7.55;4.22;;;;;;;;;;5101653;28;20056;-60
2023/10/12 03:36:22;;;;;;;7.03;3.88;;;;;;;;;;5100737;28;20396;-59
2023/10/12 03:39:06;;;;;;;7.88;4.28;;;;;;;;;;5112329;28;20052;-59
2023/10/12 03:41:47;;;;;;;7.28;3.67;;;;;;;;;;5112302;28;20055;-61
2023/10/12 03:44:19;;;;;;;7.25;4.28;;;;;;;;;;5112527;28;20048;-60
2023/10/12 03:46:56;;;;;;;9.80;4.13;;;;;;;;;;5111876;28;20062;-59
2023/10/12 03:49:32;;;;;;;9.95;3.97;;;;;;;;;;5112144;28;20055;-59
2023/10/12 03:52:00;;;;;;;8.85;4.38;;;;;;;;;;5127477;28;20075;-59
2023/10/12 03:54:29;;;;;;;4.78;3.78;;;;;;;;;;5132436;28;20051;-59
2023/10/12 03:57:06;;;;;;;9.80;4.40;;;;;;;;;;5132826;28;20047;-60
2023/10/12 03:59:44;;;;;;;7.13;4.30;;;;;;;;;;5132337;28;20047;-61
2023/10/12 04:02:15;;;;;;;6.57;4.60;;;;;;;;;;5112029;28;20468;-60
2023/10/12 04:04:59;;;;;;;7.80;4.60;;;;;;;;;;5112351;28;20070;-60
2023/10/12 04:07:39;;;;;;;10.40;5.05;;;;;;;;;;5124347;28;20047;-59
2023/10/12 04:10:14;;;;;;;10.50;5.38;;;;;;;;;;5113939;28;20408;-60
2023/10/12 04:12:53;;;;;;;10.55;4.82;;;;;;;;;;5115887;28;20051;-60
2023/10/12 04:15:27;;;;;;;;;;;;;;;;;;5116323;28;20047;-62
2023/10/12 04:17:59;;;;;;;10.65;5.18;;;;;;;;;;5114169;27;19919;-61
2023/10/12 04:20:29;;;;;;;10.48;4.63;;;;;;;;;;5116241;27;20054;-59
2023/10/12 04:26:08;;;;;;;6.40;3.90;;;;;;;;;;5094578;28;20044;-60
2023/10/12 04:28:36;;;;;;;8.38;4.38;;;;;;;;;;5098146;27;20052;-61
2023/10/12 04:33:57;;;;;;;5.97;4.28;;;;;;;;;;5121602;28;20063;-60
2023/10/12 04:36:33;;;;;;;9.82;5.00;;;;;;;;;;5108979;27;20505;-62
2023/10/12 04:39:15;;;;;;;9.25;4.40;;;;;;;;;;5103422;28;20067;-60
2023/10/12 04:41:47;;;;;;;9.07;5.15;;;;;;;;;;5114383;28;20052;-60
2023/10/12 04:44:35;;;;;;;6.28;4.47;;;;;;;;;;5114979;28;20047;-60
2023/10/12 04:47:06;;;;;;;10.82;4.45;;;;;;;;;;5114287;27;20055;-60
2023/10/12 04:52:36;;;;;;;9.05;4.97;;;;;;;;;;5109712;28;20404;-60
2023/10/12 04:57:50;;;;;;;8.50;4.85;;;;;;;;;;5115343;28;20047;-59
2023/10/12 05:00:24;;;;;;;8.88;4.80;;;;;;;;;;5115146;28;20074;-60
2023/10/12 05:02:58;;;;;;;7.60;4.50;;;;;;;;;;5113868;28;20055;-61
2023/10/12 05:08:10;;;;;;;9.25;4.53;;;;;;;;;;5100228;27;20052;-60
2023/10/12 05:10:47;;;;;;;8.40;4.97;;;;;;;;;;5093787;28;20059;-60
2023/10/12 05:13:19;;;;;;;8.77;4.82;;;;;;;;;;5110329;28;20048;-60
2023/10/12 05:15:54;;;;;;;9.55;5.07;;;;;;;;;;5100619;28;20063;-59
2023/10/12 05:18:22;;;;;;;9.02;4.97;;;;;;;;;;5095344;28;20056;-60
2023/10/12 05:20:49;;;;;;;7.53;5.05;;;;;;;;;;5101705;27;20044;-59
2023/10/12 05:23:17;;;;;;;9.93;5.97;;;;;;;;;;5093645;28;20054;-60
2023/10/12 05:26:07;;;;;;;9.30;5.65;;;;;;;;;;5097620;27;20048;-60
2023/10/12 05:28:36;;;;;;;7.60;4.72;;;;;;;;;;5095228;28;20059;-59
2023/10/12 05:31:09;;;;;;;15.85;5.38;;;;;;;;;;5095644;27;20048;-59
2023/10/12 05:33:43;;;;;;;7.28;4.25;;;;;;;;;;5092977;28;20051;-59
2023/10/12 05:36:10;;;;;;;11.13;4.35;;;;;;;;;;5102415;27;20407;-60
2023/10/12 05:38:38;;;;;;;11.23;5.63;;;;;;;;;;5098242;28;20048;-59
2023/10/12 05:41:08;;;;;;;9.98;5.07;;;;;;;;;;5110581;28;20050;-60
2023/10/12 05:43:36;;;;;;;;;;;;;;;;;;5096299;28;20051;-59
2023/10/12 05:46:09;;;;;;;10.93;4.95;;;;;;;;;;5109751;27;19919;-60
2023/10/12 05:48:41;;;;;;;7.97;5.32;;;;;;;;;;5106105;28;20056;-60
2023/10/12 05:51:10;;;;;;;9.05;5.32;;;;;;;;;;5112897;28;20044;-60
2023/10/12 05:53:37;;;;;;;8.40;5.05;;;;;;;;;;5113480;28;20055;-59
2023/10/12 05:56:06;;;;;;;7.53;4.43;;;;;;;;;;5113914;28;20058;-59
2023/10/12 05:58:34;;;;;;;10.82;5.32;;;;;;;;;;5113690;28;20052;-59
2023/10/12 06:01:08;;;;;;;11.60;5.20;;;;;;;;;;5108144;27;20349;-60
2023/10/12 06:03:36;;;;;;;8.25;4.57;;;;;;;;;;5103349;27;20054;-60
2023/10/12 06:06:03;;;;;;;8.02;4.47;;;;;;;;;;5112264;28;20047;-60
2023/10/12 06:08:30;;;;;;;9.43;4.50;;;;;;;;;;5112538;28;20074;-60
2023/10/12 06:10:58;;;;;;;8.35;3.72;;;;;;;;;;5099091;28;20323;-60
2023/10/12 06:13:40;;;;;;;8.00;4.88;;;;;;;;;;5093038;28;20067;-60
2023/10/12 06:16:14;;;;;;;8.02;4.75;;;;;;;;;;5093185;28;20079;-59
2023/10/12 06:18:44;;;;;;;8.73;4.60;;;;;;;;;;5101227;27;20059;-60
2023/10/12 06:21:17;;;;;;;9.20;5.50;;;;;;;;;;5094406;28;20052;-59
2023/10/12 06:23:45;;;;;;;6.55;4.72;;;;;;;;;;5095126;27;20055;-59
2023/10/12 06:26:28;;;;;;;8.75;5.18;;;;;;;;;;5102779;28;20493;-58
2023/10/12 06:28:57;;;;;;;5.90;4.25;;;;;;;;;;5107930;27;20489;-59
2023/10/12 06:31:25;;;;;;;10.52;4.78;;;;;;;;;;5112691;28;20059;-59
2023/10/12 06:33:53;;;;;;;6.32;4.20;;;;;;;;;;5096964;28;20412;-59
2023/10/12 06:36:36;;;;;;;7.95;4.55;;;;;;;;;;5122631;27;20485;-59
2023/10/12 06:40:07;;;;;;;8.10;4.82;;;;;;;;;;5095775;28;20051;-59
2023/10/12 06:41:59;;;;;;;9.50;4.68;;;;;;;;;;5098918;28;20052;-59
2023/10/12 06:44:33;;;;;;;6.85;4.28;;;;;;;;;;5109934;28;20047;-60
2023/10/12 06:47:02;;;;;;;8.75;4.38;;;;;;;;;;5108985;28;20059;-59
2023/10/12 06:49:29;;;;;;;6.60;4.20;;;;;;;;;;5111569;28;20055;-59
2023/10/12 06:52:00;;;;;;;9.13;5.00;;;;;;;;;;5106498;28;20527;-60
2023/10/12 06:54:32;;;;;;;7.65;4.47;;;;;;;;;;5091770;28;20052;-60
2023/10/12 07:00:18;;;;;;;7.78;4.30;;;;;;;;;;5111658;28;20048;-59
2023/10/12 07:02:51;;;;;;;9.63;4.88;;;;;;;;;;5112515;28;20051;-60
2023/10/12 07:05:20;;;;;;;8.52;4.90;;;;;;;;;;5112990;28;20073;-60
2023/10/12 07:07:51;;;;;;;8.25;4.85;;;;;;;;;;5111615;28;20507;-59
2023/10/12 07:10:28;;;;;;;10.35;5.57;;;;;;;;;;5113224;28;20404;-59
2023/10/12 07:12:59;;;;;;;10.85;5.60;;;;;;;;;;5112900;28;20051;-59
2023/10/12 07:15:32;;;;;;;9.15;5.10;;;;;;;;;;5112086;28;20058;-59
2023/10/12 07:18:05;;;;;;;10.15;5.22;;;;;;;;;;5112822;28;20055;-59
2023/10/12 07:20:43;;;;;;;7.93;4.80;;;;;;;;;;5113031;28;20048;-59
2023/10/12 07:23:15;;;;;;;10.98;5.32;;;;;;;;;;5112031;28;20070;-59
2023/10/12 07:25:45;;;;;;;7.68;4.18;;;;;;;;;;5112211;28;20063;-59
2023/10/12 07:28:18;;;;;;;;;;;;;;;;;;5113159;28;20051;-59
2023/10/12 07:31:05;;;;;;;6.47;4.20;;;;;;;;;;5113212;28;19927;-59
2023/10/12 07:33:31;;;;;;;9.15;4.40;;;;;;;;;;5112988;28;20489;-59
2023/10/12 07:36:08;;;;;;;9.93;5.53;;;;;;;;;;5110224;28;20381;-60
2023/10/12 07:38:36;;;;;;;8.20;4.85;;;;;;;;;;5095076;28;20052;-59
2023/10/12 07:41:04;;;;;;;8.90;5.65;;;;;;;;;;5092421;28;20048;-60
2023/10/12 07:43:32;;;;;;;9.35;6.22;;;;;;;;;;5092396;28;20055;-59
2023/10/12 07:46:13;;;;;;;8.55;4.47;;;;;;;;;;5107023;28;20056;-60
2023/10/12 07:48:44;;;;;;;9.30;5.28;;;;;;;;;;5116370;28;20501;-59
2023/10/12 07:51:16;;;;;;;8.52;4.85;;;;;;;;;;5115982;28;20055;-59
2023/10/12 07:53:43;;;;;;;8.45;4.82;;;;;;;;;;5116600;28;20052;-60
2023/10/12 07:56:15;;;;;;;7.53;4.72;;;;;;;;;;5116540;27;20058;-60
2023/10/12 07:58:42;;;;;;;7.45;4.68;;;;;;;;;;5116140;28;20055;-59
2023/10/12 08:01:39;;;;;;;8.40;4.45;;;;;;;;;;5116346;28;20044;-60
2023/10/12 08:04:09;;;;;;;8.45;4.30;;;;;;;;;;5116019;28;20523;-58
2023/10/12 08:06:42;;;;;;;8.52;4.10;;;;;;;;;;5115219;28;20488;-59
2023/10/12 08:09:21;;;;;;;9.00;5.80;;;;;;;;;;5115921;28;20052;-59
2023/10/12 08:11:47;;;;;;;10.70;5.13;;;;;;;;;;5115786;28;20048;-59
2023/10/12 08:14:29;;;;;;;7.60;5.15;;;;;;;;;;5115940;28;20412;-59
2023/10/12 08:19:43;;;;;;;7.93;4.45;;;;;;;;;;5114960;28;20060;-58
2023/10/12 08:22:17;;;;;;;9.85;4.00;;;;;;;;;;5114130;28;20059;-59
2023/10/12 08:24:46;;;;;;;9.90;4.47;;;;;;;;;;5115490;27;20052;-59
2023/10/12 08:27:12;;;;;;;8.15;4.80;;;;;;;;;;5095591;28;20535;-59
2023/10/12 08:32:33;;;;;;;6.45;4.03;;;;;;;;;;5121991;28;20043;-60
2023/10/12 08:35:11;;;;;;;6.80;3.90;;;;;;;;;;5115518;28;20055;-59
2023/10/12 08:38:01;;;;;;;9.38;3.97;;;;;;;;;;5094943;28;20044;-60
2023/10/12 08:40:27;;;;;;;7.10;3.97;;;;;;;;;;5095170;28;20508;-59
2023/10/12 08:42:55;;;;;;;9.65;4.30;;;;;;;;;;5095178;28;20059;-58
2023/10/12 08:45:27;;;;;;;7.57;4.20;;;;;;;;;;5099092;27;20066;-59
2023/10/12 08:48:01;;;;;;;7.45;3.90;;;;;;;;;;5094895;28;20425;-59
2023/10/12 08:53:14;;;;;;;11.00;4.57;;;;;;;;;;5121620;28;20044;-59
2023/10/12 08:55:41;;;;;;;9.25;4.07;;;;;;;;;;5114929;28;20051;-59
2023/10/12 08:58:15;;;;;;;8.77;4.00;;;;;;;;;;5115197;28;20056;-60
2023/10/12 09:00:44;;;;;;;6.97;4.00;;;;;;;;;;5115308;28;20044;-58
2023/10/12 09:03:24;;;;;;;;;;;;;;;;;;5115666;28;20055;-59
2023/10/12 09:05:54;;;;;;;6.38;3.88;;;;;;;;;;5114473;28;20371;-58
2023/10/12 09:11:14;;;;;;;8.20;4.10;;;;;;;;;;5115709;28;20464;-58
2023/10/12 09:13:46;;;;;;;6.88;4.15;;;;;;;;;;5115182;28;20052;-58
2023/10/12 09:16:15;;;;;;;5.93;3.58;;;;;;;;;;5114804;28;20404;-58
2023/10/12 09:18:46;;;;;;;5.75;3.50;;;;;;;;;;5114562;28;20056;-59
2023/10/12 09:24:06;;;;;;;8.20;4.03;;;;;;;;;;5112797;27;20051;-60
2023/10/12 09:26:34;;;;;;;6.53;3.85;;;;;;;;;;5114098;28;20425;-59
2023/10/12 09:32:12;;;;;;;7.35;3.53;;;;;;;;;;5107389;28;20384;-60
2023/10/12 09:34:47;;;;;;;10.43;3.67;;;;;;;;;;5114163;28;20063;-61
2023/10/12 09:37:20;;;;;;;6.07;3.50;;;;;;;;;;5112502;28;20051;-61
2023/10/12 09:39:48;;;;;;;8.93;3.97;;;;;;;;;;5114221;28;20051;-61
2023/10/12 09:42:27;;;;;;;7.28;3.75;;;;;;;;;;5113907;28;20448;-61
2023/10/12 09:45:01;;;;;;;7.70;3.03;;;;;;;;;;5113644;28;20051;-62
2023/10/12 09:47:43;;;;;;;5.70;3.05;;;;;;;;;;5114372;28;20051;-61
2023/10/12 09:50:13;;;;;;;9.68;3.42;;;;;;;;;;5114529;28;20270;-60
2023/10/12 09:52:46;;;;;;;5.43;2.72;;;;;;;;;;5107945;27;20400;-61
2023/10/12 09:55:15;;;;;;;5.80;3.15;;;;;;;;;;5114301;28;20056;-61
2023/10/12 09:57:49;;;;;;;7.28;3.58;;;;;;;;;;5114223;28;20058;-61
2023/10/12 10:00:28;;;;;;;4.80;2.80;;;;;;;;;;5113915;28;20047;-61
2023/10/12 10:02:59;;;;;;;6.15;3.60;;;;;;;;;;5113579;28;20044;-60
2023/10/12 10:05:51;;;;;;;5.25;3.17;;;;;;;;;;5113856;28;20063;-60
2023/10/12 10:08:18;;;;;;;7.93;3.70;;;;;;;;;;5094524;27;20060;-62
2023/10/12 10:10:45;;;;;;;5.60;2.90;;;;;;;;;;5093743;28;20507;-61
2023/10/12 10:13:37;;;;;;;9.35;3.80;;;;;;;;;;5093334;28;20058;-61
2023/10/12 10:16:08;;;;;;;8.77;3.10;;;;;;;;;;5094014;28;20059;-60
2023/10/12 10:18:45;;;;;;;6.50;3.72;;;;;;;;;;5113698;28;20404;-60
2023/10/12 10:21:13;;;;;;;6.45;3.33;;;;;;;;;;5113564;28;20050;-61
2023/10/12 10:23:48;;;;;;;6.53;3.20;;;;;;;;;;5094397;27;20048;-61
2023/10/12 10:26:20;;;;;;;7.70;3.60;;;;;;;;;;5095091;28;20481;-61
2023/10/12 10:28:55;;;;;;;5.35;2.90;;;;;;;;;;5113689;28;20048;-60
2023/10/12 10:31:24;;;;;;;4.97;3.33;;;;;;;;;;5113627;28;20055;-61
2023/10/12 10:33:51;;;;;;;6.50;2.97;;;;;;;;;;5113649;28;20047;-60
2023/10/12 10:36:24;;;;;;;4.93;3.38;;;;;;;;;;5112476;28;20055;-60
2023/10/12 10:38:54;;;;;;;9.30;3.22;;;;;;;;;;5112687;28;20056;-60
2023/10/12 10:41:37;;;;;;;6.18;3.75;;;;;;;;;;5113557;28;20052;-60
2023/10/12 10:44:05;;;;;;;7.80;3.00;;;;;;;;;;5113294;28;20063;-60
2023/10/12 10:46:32;;;;;;;6.80;3.92;;;;;;;;;;5112115;28;20051;-60
2023/10/12 10:49:02;;;;;;;8.25;3.30;;;;;;;;;;5107428;28;20055;-60
2023/10/12 10:51:29;;;;;;;10.93;3.85;;;;;;;;;;5094672;28;20055;-60
2023/10/12 10:53:57;;;;;;;8.07;3.58;;;;;;;;;;5113232;28;20051;-60
2023/10/12 10:56:34;;;;;;;5.90;3.20;;;;;;;;;;5112972;28;20067;-60
2023/10/12 10:59:01;;;;;;;5.70;3.22;;;;;;;;;;5112823;28;20063;-62
2023/10/12 11:01:27;;;;;;;4.78;2.95;;;;;;;;;;5112097;28;20507;-61
2023/10/12 11:03:56;;;;;;;8.43;3.67;;;;;;;;;;5113303;28;20062;-61
2023/10/12 11:06:23;;;;;;;10.15;3.83;;;;;;;;;;5113089;28;20048;-60
2023/10/12 11:09:01;;;;;;;8.38;3.25;;;;;;;;;;5111217;28;20051;-61
2023/10/12 11:11:37;;;;;;;6.47;3.28;;;;;;;;;;5113165;28;20063;-60
2023/10/12 11:14:03;;;;;;;7.32;3.28;;;;;;;;;;5113149;28;20066;-60
2023/10/12 11:16:30;;;;;;;4.93;3.28;;;;;;;;;;5112530;28;20047;-60
2023/10/12 11:18:58;;;;;;;7.68;3.13;;;;;;;;;;5114188;28;20052;-60
2023/10/12 11:21:26;;;;;;;7.28;3.10;;;;;;;;;;5116791;28;20055;-60
2023/10/12 11:24:01;;;;;;;6.70;3.15;;;;;;;;;;5116073;28;20512;-60
2023/10/12 11:26:27;;;;;;;6.53;3.17;;;;;;;;;;5117003;27;20055;-60
2023/10/12 11:29:06;;;;;;;6.28;3.42;;;;;;;;;;5116901;28;20059;-60
2023/10/12 11:31:33;;;;;;;7.60;3.27;;;;;;;;;;5117249;28;20051;-60
2023/10/12 11:34:06;;;;;;;7.82;3.15;;;;;;;;;;5116404;28;20078;-58
2023/10/12 11:36:35;;;;;;;9.00;3.78;;;;;;;;;;5116661;28;20051;-59
2023/10/12 11:39:04;;;;;;;5.15;3.00;;;;;;;;;;5114713;27;20051;-60
2023/10/12 11:41:31;;;;;;;5.10;2.70;;;;;;;;;;5116378;28;20056;-59
2023/10/12 11:44:00;;;;;;;5.63;3.17;;;;;;;;;;5116594;28;20052;-60
2023/10/12 11:46:40;;;;;;;6.05;3.00;;;;;;;;;;5116065;28;20052;-60
2023/10/12 11:49:10;;;;;;;6.22;3.00;;;;;;;;;;5116086;28;20055;-60
2023/10/12 11:51:40;;;;;;;7.72;2.97;;;;;;;;;;5116454;28;20055;-60
2023/10/12 11:54:10;;;;;;;9.15;3.25;;;;;;;;;;5101600;28;20063;-59
2023/10/12 11:56:43;;;;;;;5.40;2.65;;;;;;;;;;5111688;28;20052;-61
2023/10/12 11:59:19;;;;;;;7.90;3.35;;;;;;;;;;5095779;28;20056;-60
2023/10/12 12:01:51;;;;;;;5.90;3.40;;;;;;;;;;5095977;28;20503;-60
2023/10/12 12:04:24;;;;;;;5.25;3.22;;;;;;;;;;5112156;28;20484;-60
2023/10/12 12:06:53;;;;;;;6.45;3.45;;;;;;;;;;5115932;28;20048;-60
2023/10/12 12:09:22;;;;;;;8.55;3.03;;;;;;;;;;5101893;27;20048;-60
2023/10/12 12:11:49;;;;;;;4.68;3.08;;;;;;;;;;5095979;28;20059;-61
2023/10/12 12:14:16;;;;;;;6.57;3.78;;;;;;;;;;5112302;27;20047;-60
2023/10/12 12:16:43;;;;;;;9.13;3.28;;;;;;;;;;5115889;28;20051;-61
2023/10/12 12:19:18;;;;;;;7.10;3.30;;;;;;;;;;5115777;28;20047;-60
2023/10/12 12:21:46;;;;;;;5.85;3.70;;;;;;;;;;5115461;28;20558;-60
2023/10/12 12:24:21;;;;;;;5.68;3.08;;;;;;;;;;5114370;27;20411;-60
2023/10/12 12:26:49;;;;;;;4.63;2.92;;;;;;;;;;5116030;28;20051;-60
2023/10/12 12:29:21;;;;;;;5.88;3.15;;;;;;;;;;5115838;28;20047;-60
2023/10/12 12:31:48;;;;;;;9.80;3.67;;;;;;;;;;5114512;28;20059;-60
2023/10/12 12:34:34;;;;;;;4.07;2.47;;;;;;;;;;5115285;28;20055;-60
2023/10/12 12:37:04;;;;;;;9.70;3.50;;;;;;;;;;5115376;28;20593;-60
2023/10/12 12:39:33;;;;;;;5.45;3.20;;;;;;;;;;5099898;27;20412;-60
2023/10/12 12:42:00;;;;;;;4.57;3.00;;;;;;;;;;5094801;28;20052;-60
2023/10/12 12:44:27;;;;;;;6.78;3.03;;;;;;;;;;5094969;28;20064;-60
2023/10/12 12:46:56;;;;;;;8.60;3.70;;;;;;;;;;5094548;28;20055;-60
2023/10/12 12:49:25;;;;;;;;;;;;;;;;;;5110855;28;20488;-60
2023/10/12 12:51:53;;;;;;;6.28;3.45;;;;;;;;;;5095958;27;20263;-60
2023/10/12 12:54:21;;;;;;;6.25;2.60;;;;;;;;;;5096362;28;20492;-60
2023/10/12 12:56:47;;;;;;;4.68;3.10;;;;;;;;;;5094655;28;20048;-60
2023/10/12 12:59:17;;;;;;;5.80;3.35;;;;;;;;;;5108639;28;20054;-60
2023/10/12 13:01:45;;;;;;;8.65;3.05;;;;;;;;;;5114711;28;20428;-61
2023/10/12 13:04:14;;;;;;;7.23;2.90;;;;;;;;;;5115140;28;20070;-60
2023/10/12 13:06:41;;;;;;;5.03;3.47;;;;;;;;;;5115133;28;20063;-59
2023/10/12 13:09:28;;;;;;;7.00;3.88;;;;;;;;;;5113954;28;20052;-60
2023/10/12 13:12:00;;;;;;;5.47;2.95;;;;;;;;;;5115316;28;20056;-61
2023/10/12 13:14:28;;;;;;;5.97;3.33;;;;;;;;;;5115003;28;20125;-61
2023/10/12 13:16:56;;;;;;;5.28;3.10;;;;;;;;;;5114787;28;20501;-61
2023/10/12 13:19:27;;;;;;;6.28;3.03;;;;;;;;;;5114469;27;20052;-61
2023/10/12 13:21:57;;;;;;;5.70;3.00;;;;;;;;;;5104893;28;20063;-61
2023/10/12 13:24:26;;;;;;;7.63;3.42;;;;;;;;;;5106555;28;20054;-62
2023/10/12 13:26:53;;;;;;;6.97;2.78;;;;;;;;;;5114939;28;20054;-61
2023/10/12 13:29:21;;;;;;;5.78;3.45;;;;;;;;;;5106092;28;20055;-61
2023/10/12 13:31:48;;;;;;;5.97;3.33;;;;;;;;;;5101849;27;20047;-60
2023/10/12 13:34:17;;;;;;;7.93;2.95;;;;;;;;;;5114359;28;20052;-60
2023/10/12 13:36:44;;;;;;;6.28;3.30;;;;;;;;;;5114670;28;20500;-60
2023/10/12 13:39:11;;;;;;;7.00;3.95;;;;;;;;;;5106108;27;20047;-60
2023/10/12 13:41:39;;;;;;;6.30;4.03;;;;;;;;;;5101252;27;20048;-60
2023/10/12 13:44:06;;;;;;;6.20;3.25;;;;;;;;;;5093800;28;20492;-60
2023/10/12 13:46:34;;;;;;;6.07;3.13;;;;;;;;;;5093485;28;20489;-60
2023/10/12 13:49:06;;;;;;;6.22;3.65;;;;;;;;;;5093657;28;20055;-60
2023/10/12 13:51:33;;;;;;;4.78;3.42;;;;;;;;;;5097316;27;20449;-60
2023/10/12 13:54:01;;;;;;;6.53;4.10;;;;;;;;;;5113159;28;20404;-60
2023/10/12 13:56:30;;;;;;;9.75;4.65;;;;;;;;;;5113881;28;20066;-59
2023/10/12 13:58:59;;;;;;;5.30;3.22;;;;;;;;;;5113955;28;20043;-60
2023/10/12 14:01:26;;;;;;;7.07;3.53;;;;;;;;;;5113882;28;20452;-60
2023/10/12 14:03:55;;;;;;;6.78;3.78;;;;;;;;;;5114098;28;20047;-60
2023/10/12 14:06:22;;;;;;;9.77;3.75;;;;;;;;;;5114007;28;20047;-60
2023/10/12 14:08:48;;;;;;;6.55;3.45;;;;;;;;;;5113392;28;20051;-60
2023/10/12 14:11:16;;;;;;;7.18;3.80;;;;;;;;;;5093521;28;20078;-60
2023/10/12 14:13:43;;;;;;;9.45;4.43;;;;;;;;;;5093354;28;20044;-60
2023/10/12 14:16:11;;;;;;;9.43;4.43;;;;;;;;;;5093164;28;20078;-59
2023/10/12 14:18:38;;;;;;;6.47;4.20;;;;;;;;;;5094853;28;20062;-59
2023/10/12 14:21:09;;;;;;;4.75;3.38;;;;;;;;;;5108561;28;20056;-60
2023/10/12 14:23:40;;;;;;;6.75;3.63;;;;;;;;;;5112523;28;20479;-60
2023/10/12 14:26:07;;;;;;;6.38;4.15;;;;;;;;;;5111696;28;20051;-60
2023/10/12 14:28:35;;;;;;;8.88;4.20;;;;;;;;;;5107671;28;20043;-60
2023/10/12 14:31:05;;;;;;;8.55;4.20;;;;;;;;;;5107238;28;20051;-59
2023/10/12 14:33:35;;;;;;;11.77;4.70;;;;;;;;;;5111059;27;20366;-60
2023/10/12 14:36:05;;;;;;;5.68;3.67;;;;;;;;;;5113184;28;20047;-60
2023/10/12 14:38:32;;;;;;;9.20;4.45;;;;;;;;;;5112878;28;20526;-60
2023/10/12 14:40:59;;;;;;;6.28;3.47;;;;;;;;;;5112488;28;20393;-60
2023/10/12 14:43:30;;;;;;;9.10;4.70;;;;;;;;;;5112454;28;20063;-60
2023/10/12 14:45:57;;;;;;;5.93;3.38;;;;;;;;;;5109894;28;20063;-60
2023/10/12 14:48:24;;;;;;;7.28;4.25;;;;;;;;;;5112852;28;20056;-59
2023/10/12 14:51:00;;;;;;;8.80;4.60;;;;;;;;;;5109287;28;20044;-59
2023/10/12 14:53:28;;;;;;;6.75;4.45;;;;;;;;;;5110709;28;20044;-60
2023/10/12 14:55:54;;;;;;;8.15;4.82;;;;;;;;;;5096528;28;20067;-60
2023/10/12 14:58:22;;;;;;;6.13;4.38;;;;;;;;;;5109872;28;20055;-60
2023/10/12 15:00:50;;;;;;;6.10;4.38;;;;;;;;;;5108629;28;20047;-60
2023/10/12 15:03:21;;;;;;;7.60;4.20;;;;;;;;;;5096221;28;20044;-60
2023/10/12 15:05:51;;;;;;;7.10;3.58;;;;;;;;;;5100469;28;20048;-60
2023/10/12 15:08:20;;;;;;;9.50;4.35;;;;;;;;;;5096700;28;20078;-60
2023/10/12 15:10:47;;;;;;;9.40;4.45;;;;;;;;;;5093960;28;20056;-60
2023/10/12 15:13:14;;;;;;;7.75;3.80;;;;;;;;;;5103499;28;20048;-60
2023/10/12 15:15:41;;;;;;;6.72;4.43;;;;;;;;;;5097667;28;20059;-60
2023/10/12 15:18:12;;;;;;;6.32;3.78;;;;;;;;;;5093825;28;20048;-60
2023/10/12 15:20:39;;;;;;;7.32;4.05;;;;;;;;;;5092441;28;20489;-60
2023/10/12 15:23:06;;;;;;;8.93;3.65;;;;;;;;;;5096782;28;20074;-60
2023/10/12 15:25:35;;;;;;;6.70;4.07;;;;;;;;;;5103326;28;20052;-60
2023/10/12 15:28:02;;;;;;;5.53;3.95;;;;;;;;;;5110322;28;20060;-60
2023/10/12 15:30:29;;;;;;;8.57;3.97;;;;;;;;;;5106557;28;20070;-60
2023/10/12 15:32:56;;;;;;;6.45;3.88;;;;;;;;;;5096361;28;20051;-60
2023/10/12 15:35:24;;;;;;;6.70;4.80;;;;;;;;;;5098968;28;20048;-59
2023/10/12 15:37:51;;;;;;;8.88;4.93;;;;;;;;;;5092704;28;20055;-60
2023/10/12 15:40:20;;;;;;;7.72;3.83;;;;;;;;;;5101573;28;20047;-60
2023/10/12 15:42:50;;;;;;;6.68;4.05;;;;;;;;;;5098772;28;20048;-60
2023/10/12 15:45:17;;;;;;;8.60;5.13;;;;;;;;;;5098304;28;20048;-60
2023/10/12 15:47:45;;;;;;;6.25;3.88;;;;;;;;;;5102363;28;20051;-59